Milos — A8TH8 — position and weather

sailwx.info

Track history (hours):
 
Tides and Currents Weather Stations Pressure Air Temp Water Temp Dewpoint Dewpoint Depression Visibility Wind Speed Wind Dir Waves Ship Positions

Milos

Last reported at 2016-Apr-03 19:26 UTC. Time now 2016-May-06 18:47 UTC.
Position N 01°55' E 102°20'.
Warning: this ship's position is 32 days out of date.

Length 190 m; draft 10.9 m.

Type: Ship. MMSI: 636014358.

Date/timePositionNaut miles runAvg speedWind from/ knotsBaromVisibWave heightAir tempDewpointWater temp
2016-Apr-03 19:26N 01°55' E 102°20'1112.8
2016-Apr-03 18:33N 01°51' E 102°30'1313.2
2016-Apr-03 17:33N 01°45' E 102°42'7312.2
2016-Apr-03 11:33N 01°09' E 103°45'1413.7
2016-Apr-03 10:33N 01°15' E 103°58'3 3.2
2016-Apr-03 09:33N 01°17' E 103°59'0 0.0
2016-Apr-03 08:32N 01°17' E 103°59'0 0.1
2016-Apr-03 07:30N 01°18' E 103°60'0 0.1
2016-Apr-03 06:33N 01°18' E 103°60'0 0.1
2016-Apr-03 05:33N 01°17' E 103°60'0 0.1
2016-Apr-03 04:31N 01°18' E 103°60'0 0.0
2016-Apr-03 03:33N 01°18' E 103°60'0 0.0
2016-Apr-03 02:33N 01°18' E 103°60'0 0.0
2016-Apr-03 01:33N 01°18' E 103°60'0 0.1
2016-Apr-03 00:33N 01°17' E 103°60'0 0.1
2016-Apr-02 23:33N 01°17' E 103°60'0 0.1
2016-Apr-02 22:32N 01°17' E 103°60'2 1.8
2016-Apr-02 21:33N 01°16' E 104°00'6 6.2
2016-Apr-02 20:33N 01°16' E 104°06'  
2016-Mar-26 05:31N 31°17' E 121°50'8 8.5
2016-Mar-26 04:33N 31°20' E 121°41'4 3.9
2016-Mar-26 03:33N 31°22' E 121°37'0 0.3
2016-Mar-26 02:22N 31°23' E 121°37'0 0.1
2016-Mar-26 01:16N 31°23' E 121°37'0 0.1
2016-Mar-26 00:28N 31°23' E 121°37'2 1.7
2016-Mar-25 23:33N 31°23' E 121°35'1010.1
2016-Mar-25 22:34N 31°29' E 121°26'3 2.7
2016-Mar-25 21:29N 31°30' E 121°23'0 0.0
2016-Mar-25 20:32N 31°30' E 121°23'0 0.0
2016-Mar-25 19:29N 31°30' E 121°23'0 0.0
2016-Mar-25 18:32N 31°30' E 121°23'0 0.0
2016-Mar-25 17:32N 31°30' E 121°23'0 0.0
2016-Mar-25 16:32N 31°30' E 121°23'0 0.0
2016-Mar-25 15:32N 31°30' E 121°23'0 0.0
2016-Mar-25 14:32N 31°30' E 121°23'0 0.0
2016-Mar-25 13:32N 31°30' E 121°23'0 0.0
2016-Mar-25 12:32N 31°30' E 121°23'0 0.0
2016-Mar-25 11:29N 31°30' E 121°23'0 0.0
2016-Mar-25 10:32N 31°30' E 121°23'0 0.0
2016-Mar-25 09:32N 31°30' E 121°23'0 0.0
2016-Mar-25 08:29N 31°30' E 121°23'0 0.0
2016-Mar-25 07:32N 31°30' E 121°23'0 0.0
2016-Mar-25 06:32N 31°30' E 121°23'0 0.0
2016-Mar-25 05:29N 31°30' E 121°23'0 0.0
2016-Mar-25 04:32N 31°30' E 121°23'0 0.0
2016-Mar-25 03:32N 31°30' E 121°23'0 0.0
2016-Mar-25 02:32N 31°30' E 121°23'0 0.0
2016-Mar-25 01:32N 31°30' E 121°23'0 0.0
2016-Mar-25 00:32N 31°30' E 121°23'0 0.0
2016-Mar-24 23:32N 31°30' E 121°23'0 0.0
2016-Mar-24 22:32N 31°30' E 121°23'0 0.0
2016-Mar-24 21:29N 31°30' E 121°23'0 0.0
2016-Mar-24 20:32N 31°30' E 121°23'0 0.0
2016-Mar-24 19:32N 31°30' E 121°23'  
Track history (hours):
 
Tides and Currents Weather Stations Pressure Air Temp Water Temp Dewpoint Dewpoint Depression Visibility Wind Speed Wind Dir Waves Ship Positions

Milos

Last reported at 2016-Apr-03 19:26 UTC. Time now 2016-May-06 18:47 UTC.
Position N 01°55' E 102°20'.
Warning: this ship's position is 32 days out of date.

Length 190 m; draft 10.9 m.

Type: Ship. MMSI: 636014358.

Date/timePositionNaut miles runAvg speedWind from/ knotsBaromVisibWave heightAir tempDewpointWater temp
2016-Apr-03 19:26N 01°55' E 102°20'1112.8
2016-Apr-03 18:33N 01°51' E 102°30'1313.2
2016-Apr-03 17:33N 01°45' E 102°42'7312.2
2016-Apr-03 11:33N 01°09' E 103°45'1413.7
2016-Apr-03 10:33N 01°15' E 103°58'3 3.2
2016-Apr-03 09:33N 01°17' E 103°59'0 0.0
2016-Apr-03 08:32N 01°17' E 103°59'0 0.1
2016-Apr-03 07:30N 01°18' E 103°60'0 0.1
2016-Apr-03 06:33N 01°18' E 103°60'0 0.1
2016-Apr-03 05:33N 01°17' E 103°60'0 0.1
2016-Apr-03 04:31N 01°18' E 103°60'0 0.0
2016-Apr-03 03:33N 01°18' E 103°60'0 0.0
2016-Apr-03 02:33N 01°18' E 103°60'0 0.0
2016-Apr-03 01:33N 01°18' E 103°60'0 0.1
2016-Apr-03 00:33N 01°17' E 103°60'0 0.1
2016-Apr-02 23:33N 01°17' E 103°60'0 0.1
2016-Apr-02 22:32N 01°17' E 103°60'2 1.8
2016-Apr-02 21:33N 01°16' E 104°00'6 6.2
2016-Apr-02 20:33N 01°16' E 104°06'  
2016-Mar-26 05:31N 31°17' E 121°50'8 8.5
2016-Mar-26 04:33N 31°20' E 121°41'4 3.9
2016-Mar-26 03:33N 31°22' E 121°37'0 0.3
2016-Mar-26 02:22N 31°23' E 121°37'0 0.1
2016-Mar-26 01:16N 31°23' E 121°37'0 0.1
2016-Mar-26 00:28N 31°23' E 121°37'2 1.7
2016-Mar-25 23:33N 31°23' E 121°35'1010.1
2016-Mar-25 22:34N 31°29' E 121°26'3 2.7
2016-Mar-25 21:29N 31°30' E 121°23'0 0.0
2016-Mar-25 20:32N 31°30' E 121°23'0 0.0
2016-Mar-25 19:29N 31°30' E 121°23'0 0.0
2016-Mar-25 18:32N 31°30' E 121°23'0 0.0
2016-Mar-25 17:32N 31°30' E 121°23'0 0.0
2016-Mar-25 16:32N 31°30' E 121°23'0 0.0
2016-Mar-25 15:32N 31°30' E 121°23'0 0.0
2016-Mar-25 14:32N 31°30' E 121°23'0 0.0
2016-Mar-25 13:32N 31°30' E 121°23'0 0.0
2016-Mar-25 12:32N 31°30' E 121°23'0 0.0
2016-Mar-25 11:29N 31°30' E 121°23'0 0.0
2016-Mar-25 10:32N 31°30' E 121°23'0 0.0
2016-Mar-25 09:32N 31°30' E 121°23'0 0.0
2016-Mar-25 08:29N 31°30' E 121°23'0 0.0
2016-Mar-25 07:32N 31°30' E 121°23'0 0.0
2016-Mar-25 06:32N 31°30' E 121°23'0 0.0
2016-Mar-25 05:29N 31°30' E 121°23'0 0.0
2016-Mar-25 04:32N 31°30' E 121°23'0 0.0
2016-Mar-25 03:32N 31°30' E 121°23'0 0.0
2016-Mar-25 02:32N 31°30' E 121°23'0 0.0
2016-Mar-25 01:32N 31°30' E 121°23'0 0.0
2016-Mar-25 00:32N 31°30' E 121°23'0 0.0
2016-Mar-24 23:32N 31°30' E 121°23'0 0.0
2016-Mar-24 22:32N 31°30' E 121°23'0 0.0
2016-Mar-24 21:29N 31°30' E 121°23'0 0.0
2016-Mar-24 20:32N 31°30' E 121°23'0 0.0
2016-Mar-24 19:32N 31°30' E 121°23'  

Dump ship's entire track history